Terminal Aerodrome Forecast
Issued by NWS Des Moines, IA

Home | Current Version | Previous Version | Text Only | Print | Product List | Glossary On
Versions: 1 2 3 4 5 6 7 8 9 10 11 12 13 14 15 16 17 18 19 20
000
FTUS43 KDMX 022336
TAFALO
TAF
KALO 022336Z 0300/0324 32006KT P6SM OVC025
     FM030900 27003KT P6SM BKN025
     FM031400 28005KT P6SM BKN035
     FM032100 17005KT P6SM OVC060=

USA.gov is the U.S. government's official web portal to all federal, state and local government web resources and services.